createdAt,value
2017-09-14T00:01:34.854Z,12.57
2017-09-14T00:04:05.773Z,12.56
2017-09-14T00:06:38.267Z,12.55
2017-09-14T00:09:12.889Z,12.51
2017-09-14T00:11:44.908Z,12.49
2017-09-14T00:14:19.622Z,12.49
2017-09-14T00:16:51.967Z,12.48
2017-09-14T00:19:25.709Z,12.45
2017-09-14T00:21:59.245Z,12.45
2017-09-14T00:24:29.935Z,12.45
2017-09-14T00:27:02.924Z,12.44
2017-09-14T00:29:34.583Z,12.43
2017-09-14T00:32:07.176Z,12.41
2017-09-14T00:34:40.338Z,12.40
2017-09-14T00:37:13.639Z,12.38
2017-09-14T00:39:45.718Z,12.39
2017-09-14T00:42:17.918Z,12.37
2017-09-14T00:44:50.869Z,12.35
2017-09-14T00:47:23.464Z,12.34
2017-09-14T00:49:58.970Z,12.34
2017-09-14T00:52:31.982Z,12.32
2017-09-14T00:55:05.535Z,12.32
2017-09-14T00:57:37.933Z,12.32
2017-09-14T01:00:09.375Z,12.30
2017-09-14T01:02:45.162Z,12.28
2017-09-14T01:05:18.793Z,12.26
2017-09-14T01:07:52.428Z,12.24
2017-09-14T01:10:25.301Z,12.23
2017-09-14T01:12:57.317Z,12.22
2017-09-14T01:15:30.553Z,12.22
2017-09-14T01:18:01.133Z,12.22
2017-09-14T01:20:33.860Z,12.19
2017-09-14T01:23:05.516Z,12.20
2017-09-14T01:25:37.428Z,12.18
2017-09-14T01:28:10.221Z,12.16
2017-09-14T01:30:44.031Z,12.18
2017-09-14T01:33:15.424Z,12.15
2017-09-14T01:35:47.540Z,12.15
2017-09-14T01:38:22.627Z,12.14
2017-09-14T01:40:54.454Z,12.13
2017-09-14T01:43:26.384Z,12.12
2017-09-14T01:45:58.012Z,12.10
2017-09-14T01:48:28.867Z,12.11
2017-09-14T01:51:06.271Z,12.10
2017-09-14T01:53:40.213Z,12.10
2017-09-14T01:56:13.722Z,12.10
2017-09-14T01:58:47.840Z,12.09
2017-09-14T02:01:21.134Z,12.08
2017-09-14T02:03:53.207Z,12.08
2017-09-14T02:06:25.710Z,12.08
2017-09-14T02:08:57.912Z,12.07
2017-09-14T02:11:30.231Z,12.07
2017-09-14T02:13:59.798Z,12.07
2017-09-14T02:16:34.037Z,12.06
2017-09-14T02:19:05.122Z,12.07
2017-09-14T02:21:40.000Z,12.05
2017-09-14T02:24:11.800Z,12.06
2017-09-14T02:26:44.383Z,12.04
2017-09-14T02:29:18.289Z,12.05
2017-09-14T02:31:52.282Z,12.04
2017-09-14T02:34:22.968Z,12.04
2017-09-14T02:36:54.167Z,12.03
2017-09-14T02:39:27.736Z,12.03
2017-09-14T02:41:57.974Z,12.02
2017-09-14T02:44:31.514Z,12.02
2017-09-14T02:47:05.404Z,12.01
2017-09-14T02:49:36.085Z,12.00
2017-09-14T02:52:07.496Z,11.98
2017-09-14T02:54:41.387Z,11.99
2017-09-14T02:57:14.368Z,11.99
2017-09-14T02:59:46.351Z,11.99
2017-09-14T03:02:17.146Z,11.99
2017-09-14T03:04:49.756Z,12.01
2017-09-14T03:07:23.821Z,12.00
2017-09-14T03:09:54.544Z,12.00
2017-09-14T03:12:27.044Z,12.00
2017-09-14T03:14:58.155Z,11.98
2017-09-14T03:17:30.419Z,11.97
2017-09-14T03:20:01.730Z,11.97
2017-09-14T03:22:33.175Z,11.95
2017-09-14T03:25:06.158Z,11.93
2017-09-14T03:27:38.516Z,11.94
2017-09-14T03:30:10.730Z,11.94
2017-09-14T03:32:43.429Z,11.94
2017-09-14T03:35:15.383Z,11.92
2017-09-14T03:37:47.098Z,11.92
2017-09-14T03:40:19.435Z,11.94
2017-09-14T03:42:53.619Z,11.91
2017-09-14T03:45:28.952Z,11.90
2017-09-14T03:48:01.313Z,11.88
2017-09-14T03:50:36.214Z,11.89
2017-09-14T03:53:07.348Z,11.88
2017-09-14T03:55:40.513Z,11.83
2017-09-14T03:58:14.087Z,11.82
2017-09-14T04:00:47.023Z,11.80
2017-09-14T04:03:20.440Z,11.80
2017-09-14T04:05:53.021Z,11.79
2017-09-14T04:08:25.941Z,11.79
2017-09-14T04:10:58.837Z,11.78
2017-09-14T04:13:30.602Z,11.78
2017-09-14T04:16:01.660Z,11.77
2017-09-14T04:18:37.631Z,11.75
2017-09-14T04:21:09.985Z,11.71
2017-09-14T04:23:42.691Z,11.72
2017-09-14T04:26:16.399Z,11.72
2017-09-14T04:28:47.884Z,11.72
2017-09-14T04:31:19.202Z,11.69
2017-09-14T04:33:51.619Z,11.69
2017-09-14T04:36:23.975Z,11.67
2017-09-14T04:38:55.067Z,11.67
2017-09-14T04:41:25.721Z,11.66
2017-09-14T04:43:57.928Z,11.66
2017-09-14T04:46:27.889Z,11.67
2017-09-14T04:48:57.499Z,11.68
2017-09-14T04:51:29.204Z,11.67
2017-09-14T04:54:01.623Z,11.67
2017-09-14T04:56:35.362Z,11.66
2017-09-14T04:59:05.426Z,11.68
2017-09-14T05:01:39.898Z,11.66
2017-09-14T05:04:11.729Z,11.66
2017-09-14T05:06:44.619Z,11.66
2017-09-14T05:09:18.059Z,11.66
2017-09-14T05:11:51.384Z,11.65
2017-09-14T05:14:25.117Z,11.65
2017-09-14T05:16:57.687Z,11.65
2017-09-14T05:19:27.935Z,11.65
2017-09-14T05:21:57.844Z,11.64
2017-09-14T05:24:30.057Z,11.65
2017-09-14T05:27:00.702Z,11.64
2017-09-14T05:29:35.701Z,11.65
2017-09-14T05:32:09.057Z,11.67
2017-09-14T05:34:42.407Z,11.66
2017-09-14T05:37:15.610Z,11.67
2017-09-14T05:39:46.229Z,11.68
2017-09-14T05:42:17.857Z,11.68
2017-09-14T05:44:54.643Z,11.67
2017-09-14T05:47:28.204Z,11.70
2017-09-14T05:50:00.322Z,11.68
2017-09-14T05:52:32.521Z,11.69
2017-09-14T05:55:05.589Z,11.69
2017-09-14T05:57:36.732Z,11.69
2017-09-14T06:00:08.681Z,11.68
2017-09-14T06:02:40.590Z,11.70
2017-09-14T06:05:13.656Z,11.70
2017-09-14T06:07:46.007Z,11.72
2017-09-14T06:10:17.253Z,11.73
2017-09-14T06:12:54.451Z,11.73
2017-09-14T06:15:26.304Z,11.75
2017-09-14T06:17:57.724Z,11.74
2017-09-14T06:20:36.155Z,11.75
2017-09-14T06:23:08.718Z,11.75
2017-09-14T06:25:44.676Z,11.78
2017-09-14T06:28:16.967Z,11.80
2017-09-14T06:30:48.577Z,11.80
2017-09-14T06:33:18.114Z,11.82
2017-09-14T06:38:36.878Z,11.85
2017-09-14T06:41:10.110Z,11.86
2017-09-14T06:43:41.911Z,11.88
2017-09-14T06:46:15.621Z,11.90
2017-09-14T06:48:45.255Z,11.91
2017-09-14T06:51:16.912Z,11.93
2017-09-14T06:53:48.733Z,11.97
2017-09-14T06:56:20.964Z,12.01
2017-09-14T06:58:56.681Z,12.02
2017-09-14T07:01:29.149Z,12.03
2017-09-14T07:04:02.938Z,12.06
2017-09-14T07:06:41.072Z,12.06
2017-09-14T07:09:15.756Z,12.08
2017-09-14T07:11:47.892Z,12.10
2017-09-14T07:14:18.828Z,12.13
2017-09-14T07:16:51.186Z,12.14
2017-09-14T07:19:25.505Z,12.15
2017-09-14T07:21:57.078Z,12.20
2017-09-14T07:24:29.680Z,12.20
2017-09-14T07:27:01.404Z,12.23
2017-09-14T07:29:32.669Z,12.25
2017-09-14T07:32:02.688Z,12.29
2017-09-14T07:34:34.932Z,12.31
2017-09-14T07:37:07.565Z,12.33
2017-09-14T07:39:44.721Z,12.39
2017-09-14T07:42:17.659Z,12.42
2017-09-14T07:44:51.031Z,12.46
2017-09-14T07:47:25.991Z,12.51
2017-09-14T07:49:58.187Z,12.55
2017-09-14T07:52:30.694Z,12.59
2017-09-14T07:55:03.440Z,12.65
2017-09-14T07:57:37.065Z,12.67
2017-09-14T08:00:10.694Z,12.70
2017-09-14T08:02:43.552Z,12.75
2017-09-14T08:05:17.000Z,12.78
2017-09-14T08:07:51.390Z,12.80
2017-09-14T08:10:30.817Z,12.84
2017-09-14T08:13:03.440Z,12.89
2017-09-14T08:15:37.258Z,12.92
2017-09-14T08:18:10.635Z,12.95
2017-09-14T08:20:42.457Z,12.96
2017-09-14T08:23:14.713Z,12.99
2017-09-14T08:25:54.540Z,13.02
2017-09-14T08:31:12.420Z,13.11
2017-09-14T08:33:45.498Z,13.14
2017-09-14T08:36:18.335Z,13.18
2017-09-14T08:38:51.458Z,13.22
2017-09-14T08:41:24.024Z,13.26
2017-09-14T08:43:55.391Z,13.30
2017-09-14T08:46:27.686Z,13.35
2017-09-14T08:49:03.786Z,13.38
2017-09-14T08:51:36.947Z,13.42
2017-09-14T08:54:14.506Z,13.46
2017-09-14T08:56:48.199Z,13.51
2017-09-14T08:59:18.940Z,13.55
2017-09-14T09:01:51.576Z,13.56
2017-09-14T09:04:24.816Z,13.60
2017-09-14T09:06:56.787Z,13.64
2017-09-14T09:09:27.642Z,13.68
2017-09-14T09:12:02.138Z,13.72
2017-09-14T09:14:35.471Z,13.77
2017-09-14T09:17:04.151Z,13.80
2017-09-14T09:19:37.122Z,13.83
2017-09-14T09:22:09.334Z,13.84
2017-09-14T09:24:42.335Z,13.87
2017-09-14T09:27:13.737Z,13.92
2017-09-14T09:29:45.463Z,13.94
2017-09-14T09:32:16.854Z,13.98
2017-09-14T09:34:50.936Z,13.99
2017-09-14T09:37:24.833Z,14.00
2017-09-14T09:39:59.328Z,14.02
2017-09-14T09:42:32.363Z,14.00
2017-09-14T09:45:05.268Z,14.05
2017-09-14T09:47:38.767Z,14.07
2017-09-14T09:50:10.561Z,14.09
2017-09-14T09:52:43.831Z,14.09
2017-09-14T09:55:14.938Z,14.14
2017-09-14T09:57:48.983Z,14.13
2017-09-14T10:00:20.763Z,14.13
2017-09-14T10:02:53.403Z,14.17
2017-09-14T10:05:27.476Z,14.17
2017-09-14T10:08:00.290Z,14.19
2017-09-14T10:10:33.016Z,14.21
2017-09-14T10:13:05.923Z,14.24
2017-09-14T10:15:39.154Z,14.27
2017-09-14T10:18:11.172Z,14.30
2017-09-14T10:20:43.827Z,14.31
2017-09-14T10:23:18.776Z,14.34
2017-09-14T10:25:58.631Z,14.36
2017-09-14T10:28:32.635Z,14.37
2017-09-14T10:31:04.162Z,14.41
2017-09-14T10:33:36.290Z,14.44
2017-09-14T10:36:07.172Z,14.48
2017-09-14T10:38:40.515Z,14.52
2017-09-14T10:41:13.780Z,14.52
2017-09-14T10:43:46.604Z,14.53
2017-09-14T10:46:19.327Z,14.55
2017-09-14T10:48:51.493Z,14.60
2017-09-14T10:51:25.101Z,14.62
2017-09-14T10:53:57.001Z,14.63
2017-09-14T10:56:31.272Z,14.64
2017-09-14T10:59:03.948Z,14.67
2017-09-14T11:01:37.405Z,14.69
2017-09-14T11:04:10.616Z,14.71
2017-09-14T11:06:44.689Z,14.74
2017-09-14T11:09:15.938Z,14.72
2017-09-14T11:11:50.797Z,14.75
2017-09-14T11:14:22.699Z,14.77
2017-09-14T11:16:55.409Z,14.82
2017-09-14T11:19:32.701Z,14.85
2017-09-14T11:22:05.320Z,14.86
2017-09-14T11:24:38.500Z,14.89
2017-09-14T11:27:12.417Z,14.92
2017-09-14T11:29:45.518Z,14.94
2017-09-14T11:32:18.190Z,14.95
2017-09-14T11:34:50.371Z,14.98
2017-09-14T11:37:23.486Z,14.99
2017-09-14T11:39:56.083Z,15.01
2017-09-14T11:42:28.782Z,15.01
2017-09-14T11:45:01.909Z,15.04
2017-09-14T11:47:33.001Z,15.09
2017-09-14T11:50:03.932Z,15.13
2017-09-14T11:52:35.548Z,15.15
2017-09-14T11:55:08.667Z,15.18
2017-09-14T11:57:39.363Z,15.18
2017-09-14T12:00:12.913Z,15.22
2017-09-14T12:02:44.907Z,15.25
2017-09-14T12:05:16.859Z,15.28
2017-09-14T12:07:50.428Z,15.30
2017-09-14T12:10:22.317Z,15.32
2017-09-14T12:12:55.213Z,15.35
2017-09-14T12:15:27.692Z,15.38
2017-09-14T12:17:59.809Z,15.38
2017-09-14T12:20:32.173Z,15.38
2017-09-14T12:23:04.059Z,15.43
2017-09-14T12:25:42.620Z,15.46
2017-09-14T12:28:16.734Z,15.51
2017-09-14T12:30:49.852Z,15.52
2017-09-14T12:33:21.637Z,15.52
2017-09-14T12:35:53.295Z,15.55
2017-09-14T12:38:25.948Z,15.56
2017-09-14T12:40:59.285Z,15.58
2017-09-14T12:43:32.893Z,15.63
2017-09-14T12:46:05.973Z,15.67
2017-09-14T12:48:38.276Z,15.65
2017-09-14T12:51:11.677Z,15.65
2017-09-14T12:53:44.266Z,15.68
2017-09-14T12:56:16.197Z,15.68
2017-09-14T12:58:49.100Z,15.69
2017-09-14T13:01:21.519Z,15.72
2017-09-14T13:03:54.309Z,15.71
2017-09-14T13:06:26.974Z,15.68
2017-09-14T13:09:00.041Z,15.69
2017-09-14T13:11:34.417Z,15.68
2017-09-14T13:14:06.673Z,15.66
2017-09-14T13:16:41.319Z,15.68
2017-09-14T13:19:12.772Z,15.72
2017-09-14T13:21:44.191Z,15.73
2017-09-14T13:24:17.645Z,15.76
2017-09-14T13:26:49.585Z,15.79
2017-09-14T13:29:20.558Z,15.81
2017-09-14T13:31:54.618Z,15.81
2017-09-14T13:34:29.074Z,15.78
2017-09-14T13:37:01.557Z,15.78
2017-09-14T13:39:33.591Z,15.79
2017-09-14T13:42:03.976Z,15.79
2017-09-14T13:44:36.963Z,15.80
2017-09-14T13:47:08.532Z,15.79
2017-09-14T13:49:40.001Z,15.79
2017-09-14T13:52:15.539Z,15.84
2017-09-14T13:54:47.181Z,15.84
2017-09-14T13:57:20.670Z,15.87
2017-09-14T13:59:54.631Z,15.93
2017-09-14T14:02:30.338Z,15.92
2017-09-14T14:05:02.536Z,15.93
2017-09-14T14:07:33.841Z,15.94
2017-09-14T14:10:08.910Z,15.96
2017-09-14T14:12:42.698Z,15.99
2017-09-14T14:15:19.167Z,15.98
2017-09-14T14:17:51.888Z,15.99
2017-09-14T14:20:23.793Z,15.99
2017-09-14T14:22:58.390Z,15.97
2017-09-14T14:25:30.544Z,16.00
2017-09-14T14:28:04.128Z,15.98
2017-09-14T14:30:35.263Z,15.92
2017-09-14T14:33:06.891Z,15.90
2017-09-14T14:35:39.423Z,15.89
2017-09-14T14:38:12.538Z,15.86
2017-09-14T14:40:45.799Z,15.83
2017-09-14T14:43:16.413Z,15.82
2017-09-14T14:45:49.168Z,15.81
2017-09-14T14:48:21.186Z,15.80
2017-09-14T14:50:55.018Z,15.79
2017-09-14T14:53:30.992Z,15.82
2017-09-14T14:56:08.348Z,15.81
2017-09-14T14:58:39.402Z,15.81
2017-09-14T15:01:12.377Z,15.82
2017-09-14T15:03:45.794Z,15.83
2017-09-14T15:06:19.583Z,15.79
2017-09-14T15:08:50.204Z,15.72
2017-09-14T15:11:32.792Z,15.70
2017-09-14T15:14:04.909Z,15.67
2017-09-14T15:16:37.426Z,15.66
2017-09-14T15:19:08.038Z,15.63
2017-09-14T15:21:40.329Z,15.63
2017-09-14T15:24:10.391Z,15.61
2017-09-14T15:26:43.309Z,15.55
2017-09-14T15:29:15.510Z,15.54
2017-09-14T15:31:46.505Z,15.52
2017-09-14T15:34:19.724Z,15.46
2017-09-14T15:36:53.331Z,15.48
2017-09-14T15:39:30.423Z,15.43
2017-09-14T15:42:03.521Z,15.42
2017-09-14T15:44:39.912Z,15.37
2017-09-14T15:47:11.708Z,15.34
2017-09-14T15:49:49.074Z,15.28
2017-09-14T15:52:22.421Z,15.25
2017-09-14T15:54:52.503Z,15.18
2017-09-14T15:57:22.740Z,15.18
2017-09-14T15:59:53.008Z,15.16
2017-09-14T16:02:24.106Z,15.12
2017-09-14T16:04:53.945Z,15.08
2017-09-14T16:07:25.596Z,15.05
2017-09-14T16:09:58.988Z,15.02
2017-09-14T16:12:34.301Z,15.02
2017-09-14T16:15:05.610Z,14.96
2017-09-14T16:17:37.442Z,14.95
2017-09-14T16:20:11.313Z,14.92
2017-09-14T16:22:42.666Z,14.89
2017-09-14T16:25:14.524Z,14.84
2017-09-14T16:27:47.958Z,14.80
2017-09-14T16:30:18.897Z,14.77
2017-09-14T16:32:52.419Z,14.75
2017-09-14T16:35:24.023Z,14.76
2017-09-14T16:38:01.959Z,14.75
2017-09-14T16:40:33.908Z,14.74
2017-09-14T16:43:05.023Z,14.71
2017-09-14T16:45:36.800Z,14.68
2017-09-14T16:48:06.574Z,14.67
2017-09-14T16:50:43.309Z,14.66
2017-09-14T16:53:16.775Z,14.64
2017-09-14T16:55:54.533Z,14.63
2017-09-14T16:58:34.094Z,14.62
2017-09-14T17:04:01.828Z,14.53
2017-09-14T17:06:44.630Z,14.52
2017-09-14T17:09:19.834Z,14.50
2017-09-14T17:11:53.629Z,14.47
2017-09-14T17:14:34.254Z,14.43
2017-09-14T17:17:14.998Z,14.40
2017-09-14T17:20:03.988Z,14.36
2017-09-14T17:22:45.714Z,14.34
2017-09-14T17:25:25.800Z,14.33
2017-09-14T17:27:58.927Z,14.30
2017-09-14T17:30:34.335Z,14.27
2017-09-14T17:33:08.947Z,14.21
2017-09-14T17:38:32.027Z,14.15
2017-09-14T17:41:10.067Z,14.13
2017-09-14T17:43:48.697Z,14.09
2017-09-14T17:46:22.520Z,14.06
2017-09-14T17:49:07.746Z,14.06
2017-09-14T17:51:45.655Z,14.05
2017-09-14T17:54:33.344Z,14.00
2017-09-14T17:57:15.954Z,13.97
2017-09-14T17:59:54.245Z,13.99
2017-09-14T18:02:34.268Z,13.93
2017-09-14T18:05:09.242Z,13.92
2017-09-14T18:07:55.755Z,13.92
2017-09-14T18:16:12.835Z,13.85
2017-09-14T18:21:32.889Z,13.85
2017-09-14T18:24:11.697Z,13.82
2017-09-14T18:26:53.130Z,13.81
2017-09-14T18:32:20.775Z,13.76
2017-09-14T18:35:01.302Z,13.76
2017-09-14T18:37:36.386Z,13.75
2017-09-14T18:40:14.448Z,13.74
2017-09-14T18:42:50.472Z,13.72
2017-09-14T18:45:33.960Z,13.69
2017-09-14T18:48:05.400Z,13.66
2017-09-14T18:50:41.547Z,13.64
2017-09-14T18:53:14.494Z,13.56
2017-09-14T18:55:46.998Z,13.56
2017-09-14T18:58:23.520Z,13.58
2017-09-14T19:00:59.142Z,13.56
2017-09-14T19:03:35.200Z,13.55
2017-09-14T19:06:15.267Z,13.46
2017-09-14T19:08:51.300Z,13.48
2017-09-14T19:11:28.527Z,13.46
2017-09-14T19:14:00.369Z,13.46
2017-09-14T19:16:39.867Z,13.46
2017-09-14T19:19:16.098Z,13.44
2017-09-14T19:21:51.631Z,13.41
2017-09-14T19:24:28.594Z,13.42
2017-09-14T19:27:00.960Z,13.44
2017-09-14T19:29:31.432Z,13.42
2017-09-14T19:32:04.767Z,13.39
2017-09-14T19:34:36.732Z,13.42
2017-09-14T19:37:18.387Z,13.41
2017-09-14T19:39:53.790Z,13.42
2017-09-14T19:42:25.720Z,13.43
2017-09-14T19:44:59.444Z,13.42
2017-09-14T19:47:30.491Z,13.44
2017-09-14T19:50:03.216Z,13.44
2017-09-14T19:52:35.817Z,13.44
2017-09-14T19:55:07.072Z,13.44
2017-09-14T19:57:38.448Z,13.41
2017-09-14T20:00:10.913Z,13.41
2017-09-14T20:02:42.761Z,13.41
2017-09-14T20:05:17.843Z,13.38
2017-09-14T20:08:00.096Z,13.38
2017-09-14T20:10:35.341Z,13.41
2017-09-14T20:13:08.881Z,13.41
2017-09-14T20:15:41.935Z,13.40
2017-09-14T20:18:15.147Z,13.39
2017-09-14T20:20:46.576Z,13.36
2017-09-14T20:23:18.643Z,13.39
2017-09-14T20:25:53.435Z,13.40
2017-09-14T20:28:26.339Z,13.40
2017-09-14T20:33:39.247Z,13.37
2017-09-14T20:36:11.795Z,13.37
2017-09-14T20:38:44.373Z,13.36
2017-09-14T20:41:19.222Z,13.36
2017-09-14T20:43:53.213Z,13.34
2017-09-14T20:46:25.669Z,13.33
2017-09-14T20:48:58.551Z,13.35
2017-09-14T20:51:39.720Z,13.33
2017-09-14T20:54:15.889Z,13.30
2017-09-14T20:56:49.884Z,13.29
2017-09-14T20:59:24.604Z,13.28
2017-09-14T21:01:58.767Z,13.27
2017-09-14T21:04:36.135Z,13.26
2017-09-14T21:07:08.477Z,13.23
2017-09-14T21:09:41.822Z,13.24
2017-09-14T21:12:14.845Z,13.23
2017-09-14T21:14:47.890Z,13.22
2017-09-14T21:17:25.758Z,13.22
2017-09-14T21:19:59.320Z,13.21
2017-09-14T21:22:30.410Z,13.20
2017-09-14T21:25:04.323Z,13.19
2017-09-14T21:27:44.071Z,13.20
2017-09-14T21:30:15.790Z,13.18
2017-09-14T21:32:47.347Z,13.19
2017-09-14T21:35:22.682Z,13.18
2017-09-14T21:37:55.781Z,13.18
2017-09-14T21:40:30.857Z,13.17
2017-09-14T21:43:04.492Z,13.15
2017-09-14T21:48:12.819Z,13.16
2017-09-14T21:50:44.776Z,13.15
2017-09-14T21:53:19.077Z,13.14
2017-09-14T21:55:50.533Z,13.14
2017-09-14T21:58:23.340Z,13.14
2017-09-14T22:00:58.514Z,13.12
2017-09-14T22:03:31.422Z,13.11
2017-09-14T22:06:02.882Z,13.08
2017-09-14T22:08:37.020Z,13.09
2017-09-14T22:11:08.608Z,13.06
2017-09-14T22:13:54.400Z,13.03
2017-09-14T22:16:39.984Z,13.02
2017-09-14T22:19:25.578Z,13.05
2017-09-14T22:22:06.621Z,13.05
2017-09-14T22:24:47.770Z,13.01
2017-09-14T22:27:29.735Z,13.04
2017-09-14T22:30:01.707Z,12.96
2017-09-14T22:32:33.053Z,12.96
2017-09-14T22:35:03.777Z,12.98
2017-09-14T22:37:36.621Z,12.93
2017-09-14T22:40:07.903Z,12.97
2017-09-14T22:42:41.031Z,12.95
2017-09-14T22:45:11.726Z,12.93
2017-09-14T22:47:45.004Z,12.92
2017-09-14T22:50:20.123Z,12.91
2017-09-14T22:52:51.252Z,12.89
2017-09-14T22:55:23.784Z,12.89
2017-09-14T22:57:55.657Z,12.85
2017-09-14T23:00:28.760Z,12.82
2017-09-14T23:03:01.799Z,12.83
2017-09-14T23:05:40.345Z,12.82
2017-09-14T23:08:11.756Z,12.79
2017-09-14T23:10:45.845Z,12.78
2017-09-14T23:13:18.499Z,12.78
2017-09-14T23:15:54.351Z,12.77
2017-09-14T23:18:23.643Z,12.77
2017-09-14T23:20:56.966Z,12.77
2017-09-14T23:23:28.534Z,12.77
2017-09-14T23:26:00.229Z,12.77
2017-09-14T23:28:35.110Z,12.72
2017-09-14T23:31:07.279Z,12.72
2017-09-14T23:33:37.437Z,12.75
2017-09-14T23:36:09.270Z,12.75
2017-09-14T23:38:39.725Z,12.76
2017-09-14T23:41:11.429Z,12.77
2017-09-14T23:43:42.929Z,12.76
2017-09-14T23:46:15.414Z,12.76
2017-09-14T23:48:48.060Z,12.75
2017-09-14T23:51:22.392Z,12.75
2017-09-14T23:53:54.064Z,12.75
2017-09-14T23:56:26.208Z,12.73
2017-09-14T23:58:59.139Z,12.75
